Pocoes, Brazil
Current Conditions -  °F | °C
As of 5:00 PM on Wednesday 28 Jan 2015 (Local Time) from SBQV Reporting Station
Few Clouds Few Clouds  
Wind Chill: 84°   Ceiling: Unl
Heat Index: 85°   Visibility: 6mi
Dew Point: 63°   Wind: 9mph
Humidity: 48%   Direction: 110°ESE
Pressure: 30.03"   Gusts: NA
Location:  14.53°S, 40.37°W
Report Text: SBQV 282000Z 11008KT 9999 FEW035 29/17 Q1017
Loading
Personal Weather Stations






























Interactive Weather Map New forecast layout! Learn more

10-Day Weather Forecast

Advertisements
Track Severe Weather on mobile